createdAt,value
2023-05-02T00:02:26.089Z,50.53
2023-05-02T00:04:53.902Z,50.40
2023-05-02T00:07:21.957Z,50.41
2023-05-02T00:09:49.704Z,50.18
2023-05-02T00:12:17.452Z,49.92
2023-05-02T00:14:45.198Z,49.98
2023-05-02T00:17:20.653Z,49.62
2023-05-02T00:19:48.590Z,49.39
2023-05-02T00:22:16.472Z,49.69
2023-05-02T00:24:44.374Z,49.45
2023-05-02T00:27:12.038Z,49.40
2023-05-02T00:29:41.035Z,49.48
2023-05-02T00:32:09.242Z,49.55
2023-05-02T00:34:37.001Z,49.28
2023-05-02T00:37:04.888Z,49.36
2023-05-02T00:39:34.168Z,49.62
2023-05-02T00:42:02.307Z,49.45
2023-05-02T00:44:30.129Z,49.21
2023-05-02T00:46:58.908Z,49.47
2023-05-02T00:49:26.639Z,49.65
2023-05-02T00:51:55.222Z,49.31
2023-05-02T00:54:23.145Z,49.38
2023-05-02T00:56:51.256Z,49.33
2023-05-02T00:59:19.062Z,49.41
2023-05-02T01:02:07.760Z,49.25
2023-05-02T01:05:00.565Z,49.43
2023-05-02T01:07:28.260Z,49.71
2023-05-02T01:10:15.114Z,49.78
2023-05-02T01:12:52.460Z,49.62
2023-05-02T01:15:22.859Z,49.68
2023-05-02T01:17:52.715Z,49.44
2023-05-02T01:20:28.909Z,49.31
2023-05-02T01:23:04.855Z,49.48
2023-05-02T01:25:45.239Z,49.63
2023-05-02T01:28:34.736Z,49.73
2023-05-02T01:31:04.519Z,49.81
2023-05-02T01:33:35.824Z,49.66
2023-05-02T01:36:04.018Z,49.81
2023-05-02T01:38:34.910Z,49.54
2023-05-02T01:41:05.540Z,49.91
2023-05-02T01:43:35.087Z,50.03
2023-05-02T01:46:05.253Z,49.99
2023-05-02T01:48:33.242Z,49.86
2023-05-02T01:51:03.655Z,50.08
2023-05-02T01:53:34.703Z,49.87
2023-05-02T01:56:03.979Z,49.87
2023-05-02T01:58:34.769Z,49.93
2023-05-02T02:01:04.948Z,50.29
2023-05-02T02:03:33.801Z,50.31
2023-05-02T02:06:03.939Z,50.04
2023-05-02T02:08:31.856Z,50.22
2023-05-02T02:11:04.593Z,49.88
2023-05-02T02:13:39.254Z,50.60
2023-05-02T02:16:13.115Z,50.17
2023-05-02T02:18:45.118Z,50.26
2023-05-02T02:21:17.349Z,50.06
2023-05-02T02:23:49.786Z,50.20
2023-05-02T02:26:22.430Z,49.67
2023-05-02T02:28:50.730Z,49.60
2023-05-02T02:31:18.491Z,49.55
2023-05-02T02:33:46.395Z,49.79
2023-05-02T02:36:33.525Z,49.98
2023-05-02T02:39:04.073Z,49.82
2023-05-02T02:41:46.125Z,49.81
2023-05-02T02:44:28.812Z,49.60
2023-05-02T02:47:02.790Z,49.90
2023-05-02T02:50:17.392Z,49.81
2023-05-02T02:52:48.369Z,49.67
2023-05-02T02:55:40.819Z,49.60
2023-05-02T02:58:15.390Z,49.73
2023-05-02T03:00:43.670Z,49.69
2023-05-02T03:03:14.533Z,49.79
2023-05-02T03:05:46.416Z,49.70
2023-05-02T03:08:15.652Z,49.60
2023-05-02T03:10:43.384Z,49.89
2023-05-02T03:13:11.966Z,49.89
2023-05-02T03:15:54.179Z,50.08
2023-05-02T03:18:28.683Z,50.14
2023-05-02T03:20:57.140Z,49.98
2023-05-02T03:23:25.435Z,50.18
2023-05-02T03:25:57.600Z,50.18
2023-05-02T03:28:26.962Z,49.84
2023-05-02T03:30:54.743Z,50.44
2023-05-02T03:33:23.863Z,50.27
2023-05-02T03:35:51.634Z,49.91
2023-05-02T03:38:21.027Z,49.94
2023-05-02T03:40:50.279Z,50.26
2023-05-02T03:43:18.735Z,49.96
2023-05-02T03:45:48.691Z,49.82
2023-05-02T03:48:17.469Z,50.01
2023-05-02T03:50:45.188Z,50.08
2023-05-02T03:53:13.121Z,49.56
2023-05-02T03:55:50.098Z,49.11
2023-05-02T03:58:27.105Z,49.16
2023-05-02T04:00:55.438Z,49.14
2023-05-02T04:03:24.485Z,49.13
2023-05-02T04:05:52.700Z,49.16
2023-05-02T04:08:20.524Z,48.82
2023-05-02T04:10:52.142Z,48.64
2023-05-02T04:13:20.339Z,48.97
2023-05-02T04:15:51.116Z,49.08
2023-05-02T04:18:22.471Z,49.36
2023-05-02T04:20:51.411Z,49.43
2023-05-02T04:23:20.885Z,48.98
2023-05-02T04:25:58.480Z,48.70
2023-05-02T04:28:35.783Z,48.48
2023-05-02T04:31:04.658Z,48.87
2023-05-02T04:33:33.531Z,49.07
2023-05-02T04:36:01.413Z,49.39
2023-05-02T04:38:29.506Z,49.49
2023-05-02T04:40:57.235Z,48.90
2023-05-02T04:43:32.903Z,48.76
2023-05-02T04:46:03.118Z,48.81
2023-05-02T04:48:37.426Z,48.93
2023-05-02T04:51:05.505Z,49.03
2023-05-02T04:53:33.632Z,49.17
2023-05-02T04:56:01.605Z,48.83
2023-05-02T04:58:30.842Z,49.21
2023-05-02T05:01:02.729Z,49.10
2023-05-02T05:03:31.252Z,49.02
2023-05-02T05:05:59.442Z,48.54
2023-05-02T05:08:28.508Z,48.76
2023-05-02T05:10:58.630Z,48.56
2023-05-02T05:13:27.190Z,48.81
2023-05-02T05:15:54.988Z,48.72
2023-05-02T05:18:27.137Z,48.45
2023-05-02T05:20:56.030Z,48.58
2023-05-02T05:23:23.850Z,48.11
2023-05-02T05:25:51.996Z,47.67
2023-05-02T05:28:19.895Z,47.86
2023-05-02T05:30:48.532Z,47.77
2023-05-02T05:33:21.431Z,47.84
2023-05-02T05:35:50.149Z,47.34
2023-05-02T05:38:17.892Z,47.46
2023-05-02T05:40:51.076Z,47.43
2023-05-02T05:43:19.514Z,46.99
2023-05-02T05:45:47.546Z,47.41
2023-05-02T05:48:15.865Z,47.45
2023-05-02T05:50:46.696Z,47.04
2023-05-02T05:53:14.923Z,47.19
2023-05-02T05:55:44.283Z,47.16
2023-05-02T05:58:12.388Z,47.28
2023-05-02T06:00:42.450Z,47.31
2023-05-02T06:03:10.493Z,47.06
2023-05-02T06:05:39.078Z,46.92
2023-05-02T06:08:06.857Z,47.53
2023-05-02T06:10:34.941Z,47.16
2023-05-02T06:13:03.484Z,47.81
2023-05-02T06:15:37.921Z,47.88
2023-05-02T06:18:07.395Z,47.96
2023-05-02T06:20:36.903Z,48.41
2023-05-02T06:23:05.120Z,48.86
2023-05-02T06:25:34.186Z,48.90
2023-05-02T06:28:01.991Z,49.12
2023-05-02T06:30:29.746Z,49.21
2023-05-02T06:32:57.685Z,49.51
2023-05-02T06:35:25.377Z,49.52
2023-05-02T06:37:53.237Z,50.35
2023-05-02T06:40:21.390Z,50.16
2023-05-02T06:42:49.121Z,50.19
2023-05-02T06:45:16.959Z,50.31
2023-05-02T06:47:44.775Z,50.28
2023-05-02T06:50:12.604Z,50.27
2023-05-02T06:52:40.365Z,50.31
2023-05-02T06:55:08.730Z,50.10
2023-05-02T06:57:36.546Z,50.15
2023-05-02T07:00:05.152Z,50.20
2023-05-02T07:02:33.114Z,50.27
2023-05-02T07:05:00.973Z,50.00
2023-05-02T07:07:28.770Z,50.21
2023-05-02T07:09:56.869Z,50.18
2023-05-02T07:12:24.600Z,49.97
2023-05-02T07:14:52.758Z,50.27
2023-05-02T07:17:21.061Z,50.17
2023-05-02T07:19:48.908Z,50.73
2023-05-02T07:22:16.692Z,51.02
2023-05-02T07:24:44.694Z,50.03
2023-05-02T07:27:13.377Z,49.61
2023-05-02T07:29:42.842Z,50.02
2023-05-02T07:32:11.832Z,49.87
2023-05-02T07:34:39.524Z,49.87
2023-05-02T07:37:07.164Z,49.72
2023-05-02T07:39:35.111Z,50.08
2023-05-02T07:42:04.063Z,49.95
2023-05-02T07:44:35.173Z,49.82
2023-05-02T07:47:03.317Z,49.66
2023-05-02T07:49:31.544Z,49.50
2023-05-02T07:51:59.300Z,49.60
2023-05-02T07:54:27.780Z,49.09
2023-05-02T07:56:58.353Z,49.14
2023-05-02T07:59:26.203Z,49.60
2023-05-02T08:01:54.048Z,49.13
2023-05-02T08:04:23.183Z,48.96
2023-05-02T08:06:51.146Z,49.10
2023-05-02T08:09:18.872Z,49.24
2023-05-02T08:11:47.078Z,48.70
2023-05-02T08:14:16.395Z,49.00
2023-05-02T08:16:46.235Z,48.96
2023-05-02T08:19:15.071Z,49.10
2023-05-02T08:21:43.066Z,48.71
2023-05-02T08:24:10.925Z,48.99
2023-05-02T08:26:38.765Z,49.03
2023-05-02T08:29:06.825Z,48.67
2023-05-02T08:31:34.627Z,48.50
2023-05-02T08:34:02.588Z,48.27
2023-05-02T08:36:30.566Z,47.92
2023-05-02T08:38:58.758Z,48.30
2023-05-02T08:41:29.781Z,48.55
2023-05-02T08:43:58.135Z,48.88
2023-05-02T08:46:27.319Z,48.67
2023-05-02T08:48:59.070Z,49.06
2023-05-02T08:51:29.425Z,48.95
2023-05-02T08:53:58.328Z,48.62
2023-05-02T08:56:26.419Z,48.31
2023-05-02T08:58:54.255Z,47.37
2023-05-02T09:01:24.522Z,47.26
2023-05-02T09:03:52.796Z,46.77
2023-05-02T09:06:22.184Z,47.04
2023-05-02T09:08:54.703Z,47.34
2023-05-02T09:11:22.489Z,47.51
2023-05-02T09:13:52.291Z,47.62
2023-05-02T09:16:25.906Z,47.17
2023-05-02T09:18:56.112Z,47.31
2023-05-02T09:21:37.279Z,47.16
2023-05-02T09:24:19.443Z,46.82
2023-05-02T09:27:05.350Z,46.35
2023-05-02T09:29:38.983Z,47.04
2023-05-02T09:32:07.420Z,47.92
2023-05-02T09:34:37.580Z,46.40
2023-05-02T09:37:06.545Z,45.73
2023-05-02T09:39:37.105Z,44.90
2023-05-02T09:42:05.019Z,44.84
2023-05-02T09:44:43.207Z,44.79
2023-05-02T09:47:13.484Z,45.61
2023-05-02T09:49:49.467Z,45.42
2023-05-02T09:52:20.146Z,45.25
2023-05-02T09:54:50.753Z,45.11
2023-05-02T09:57:18.953Z,45.15
2023-05-02T09:59:57.194Z,44.85
2023-05-02T10:02:26.348Z,44.81
2023-05-02T10:04:57.378Z,45.73
2023-05-02T10:07:26.520Z,45.02
2023-05-02T10:09:58.712Z,45.21
2023-05-02T10:12:29.270Z,45.45
2023-05-02T10:15:03.374Z,45.73
2023-05-02T10:17:34.529Z,45.42
2023-05-02T10:20:07.565Z,45.50
2023-05-02T10:22:37.039Z,45.50
2023-05-02T10:25:05.159Z,44.83
2023-05-02T10:27:34.087Z,44.20
2023-05-02T10:30:06.978Z,43.85
2023-05-02T10:32:37.260Z,44.46
2023-05-02T10:35:07.295Z,43.75
2023-05-02T10:37:37.082Z,43.71
2023-05-02T10:40:06.450Z,43.90
2023-05-02T10:42:39.420Z,44.15
2023-05-02T10:45:37.344Z,44.61
2023-05-02T10:48:27.855Z,45.00
2023-05-02T10:51:02.075Z,44.59
2023-05-02T10:53:36.833Z,44.67
2023-05-02T10:56:15.648Z,44.35
2023-05-02T10:58:45.424Z,44.23
2023-05-02T11:01:26.529Z,45.15
2023-05-02T11:03:59.253Z,44.79
2023-05-02T11:06:32.719Z,44.70
2023-05-02T11:09:29.818Z,44.23
2023-05-02T11:11:58.075Z,45.02
2023-05-02T11:14:25.797Z,44.78
2023-05-02T11:17:04.596Z,44.24
2023-05-02T11:19:38.519Z,44.26
2023-05-02T11:22:19.276Z,43.77
2023-05-02T11:24:48.722Z,43.80
2023-05-02T11:27:38.212Z,42.90
2023-05-02T11:30:07.037Z,42.81
2023-05-02T11:32:44.240Z,42.31
2023-05-02T11:35:23.757Z,42.31
2023-05-02T11:37:58.124Z,42.49
2023-05-02T11:40:27.873Z,42.43
2023-05-02T11:42:56.654Z,42.34
2023-05-02T11:45:34.348Z,41.74
2023-05-02T11:48:05.070Z,42.30
2023-05-02T11:50:34.379Z,43.00
2023-05-02T11:53:02.198Z,42.92
2023-05-02T11:55:30.296Z,42.82
2023-05-02T11:57:58.228Z,42.90
2023-05-02T12:00:28.660Z,43.23
2023-05-02T12:02:56.631Z,43.33
2023-05-02T12:05:31.899Z,43.45
2023-05-02T12:08:01.556Z,43.71
2023-05-02T12:10:38.843Z,43.80
2023-05-02T12:13:10.072Z,43.48
2023-05-02T12:15:39.457Z,43.53
2023-05-02T12:18:08.309Z,43.14
2023-05-02T12:20:38.808Z,43.23
2023-05-02T12:23:08.306Z,43.04
2023-05-02T12:25:43.099Z,43.24
2023-05-02T12:28:11.527Z,43.38
2023-05-02T12:30:41.716Z,42.79
2023-05-02T12:33:10.263Z,42.78
2023-05-02T12:35:38.574Z,42.82
2023-05-02T12:38:30.194Z,42.76
2023-05-02T12:41:03.367Z,42.86
2023-05-02T12:43:46.793Z,42.80
2023-05-02T12:46:20.136Z,43.16
2023-05-02T12:49:10.326Z,42.93
2023-05-02T12:51:59.115Z,43.08
2023-05-02T12:54:32.925Z,42.84
2023-05-02T12:57:06.093Z,42.45
2023-05-02T12:59:34.543Z,42.57
2023-05-02T13:02:05.633Z,42.50
2023-05-02T13:04:42.365Z,42.56
2023-05-02T13:07:11.634Z,42.98
2023-05-02T13:09:44.659Z,42.38
2023-05-02T13:12:12.797Z,41.99
2023-05-02T13:14:41.075Z,41.31
2023-05-02T13:17:09.307Z,41.08
2023-05-02T13:19:38.769Z,41.38
2023-05-02T13:22:09.019Z,41.13
2023-05-02T13:24:37.014Z,41.36
2023-05-02T13:27:05.389Z,41.39
2023-05-02T13:29:33.278Z,41.96
2023-05-02T13:32:01.368Z,41.58
2023-05-02T13:34:29.140Z,41.64
2023-05-02T13:36:56.861Z,41.76
2023-05-02T13:39:24.546Z,42.02
2023-05-02T13:41:52.264Z,41.59
2023-05-02T13:44:20.011Z,41.64
2023-05-02T13:46:47.991Z,41.93
2023-05-02T13:49:15.776Z,41.57
2023-05-02T13:51:43.609Z,41.74
2023-05-02T13:54:11.949Z,42.14
2023-05-02T13:56:40.035Z,42.37
2023-05-02T13:59:10.247Z,42.36
2023-05-02T14:01:40.711Z,42.66
2023-05-02T14:04:09.208Z,42.84
2023-05-02T14:06:38.012Z,42.49
2023-05-02T14:09:07.337Z,42.84
2023-05-02T14:11:35.121Z,42.80
2023-05-02T14:14:02.929Z,42.49
2023-05-02T14:16:30.933Z,42.82
2023-05-02T14:18:59.008Z,43.03
2023-05-02T14:21:27.372Z,42.39
2023-05-02T14:23:55.037Z,42.59
2023-05-02T14:26:22.801Z,42.28
2023-05-02T14:28:50.678Z,42.38
2023-05-02T14:31:18.564Z,42.47
2023-05-02T14:33:46.490Z,42.09
2023-05-02T14:36:14.424Z,42.21
2023-05-02T14:38:42.148Z,41.96
2023-05-02T14:41:10.339Z,42.15
2023-05-02T14:43:39.572Z,42.37
2023-05-02T14:46:07.414Z,42.35
2023-05-02T14:48:35.176Z,42.63
2023-05-02T14:51:06.681Z,42.73
2023-05-02T14:53:34.424Z,42.58
2023-05-02T14:56:02.308Z,42.41
2023-05-02T14:58:30.152Z,42.06
2023-05-02T15:00:58.285Z,41.86
2023-05-02T15:03:26.066Z,42.40
2023-05-02T15:05:53.748Z,42.18
2023-05-02T15:08:21.542Z,42.50
2023-05-02T15:10:49.234Z,42.27
2023-05-02T15:13:17.055Z,42.33
2023-05-02T15:15:47.722Z,42.01
2023-05-02T15:18:15.494Z,41.95
2023-05-02T15:20:44.704Z,42.07
2023-05-02T15:23:12.316Z,42.14
2023-05-02T15:25:40.100Z,41.89
2023-05-02T15:28:08.367Z,42.11
2023-05-02T15:30:36.625Z,42.10
2023-05-02T15:33:04.389Z,42.42
2023-05-02T15:35:32.134Z,42.54
2023-05-02T15:38:00.029Z,42.49
2023-05-02T15:40:28.541Z,42.64
2023-05-02T15:42:56.320Z,43.12
2023-05-02T15:45:24.167Z,43.02
2023-05-02T15:47:53.214Z,42.67
2023-05-02T15:50:21.172Z,42.60
2023-05-02T15:52:49.119Z,42.44
2023-05-02T15:55:17.049Z,42.11
2023-05-02T15:57:44.794Z,42.30
2023-05-02T16:00:17.076Z,42.13
2023-05-02T16:02:45.270Z,42.26
2023-05-02T16:05:13.405Z,42.44
2023-05-02T16:07:42.174Z,42.43
2023-05-02T16:10:10.075Z,42.40
2023-05-02T16:12:37.856Z,42.56
2023-05-02T16:15:06.524Z,43.04
2023-05-02T16:17:34.434Z,43.21
2023-05-02T16:20:02.609Z,42.80
2023-05-02T16:22:30.873Z,43.25
2023-05-02T16:24:58.629Z,43.40
2023-05-02T16:27:26.984Z,43.77
2023-05-02T16:29:55.056Z,43.46
2023-05-02T16:32:23.993Z,43.70
2023-05-02T16:34:51.929Z,44.17
2023-05-02T16:37:19.891Z,44.25
2023-05-02T16:39:47.933Z,44.82
2023-05-02T16:42:16.776Z,44.68
2023-05-02T16:44:44.575Z,45.01
2023-05-02T16:47:12.493Z,44.99
2023-05-02T16:49:40.386Z,44.95
2023-05-02T16:52:08.301Z,45.03
2023-05-02T16:54:36.148Z,44.78
2023-05-02T16:57:04.132Z,44.63
2023-05-02T16:59:31.863Z,44.82
2023-05-02T17:01:59.882Z,45.13
2023-05-02T17:04:27.996Z,44.72
2023-05-02T17:06:59.050Z,44.27
2023-05-02T17:09:27.016Z,44.63
2023-05-02T17:11:55.020Z,44.77
2023-05-02T17:14:24.420Z,45.05
2023-05-02T17:16:52.375Z,45.46
2023-05-02T17:19:22.467Z,45.14
2023-05-02T17:21:52.235Z,44.86
2023-05-02T17:24:22.954Z,45.08
2023-05-02T17:26:54.540Z,45.08
2023-05-02T17:29:22.178Z,45.23
2023-05-02T17:31:49.969Z,44.95
2023-05-02T17:34:17.943Z,44.66
2023-05-02T17:36:46.475Z,44.72
2023-05-02T17:39:16.069Z,44.78
2023-05-02T17:41:46.941Z,44.55
2023-05-02T17:44:15.872Z,44.87
2023-05-02T17:46:43.763Z,45.11
2023-05-02T17:49:11.550Z,44.90
2023-05-02T17:51:39.439Z,45.14
2023-05-02T17:54:07.322Z,45.52
2023-05-02T17:56:36.920Z,45.71
2023-05-02T17:59:05.145Z,45.71
2023-05-02T18:01:35.595Z,45.27
2023-05-02T18:04:08.017Z,45.49
2023-05-02T18:06:36.017Z,45.44
2023-05-02T18:09:03.797Z,45.72
2023-05-02T18:11:38.775Z,45.80
2023-05-02T18:14:07.267Z,45.85
2023-05-02T18:16:36.305Z,46.05
2023-05-02T18:19:04.350Z,45.95
2023-05-02T18:21:34.874Z,45.78
2023-05-02T18:24:02.675Z,45.32
2023-05-02T18:26:30.519Z,45.56
2023-05-02T18:28:58.370Z,45.60
2023-05-02T18:31:26.403Z,45.69
2023-05-02T18:33:54.736Z,45.91
2023-05-02T18:36:27.444Z,45.73
2023-05-02T18:38:56.515Z,45.33
2023-05-02T18:41:27.322Z,45.33
2023-05-02T18:43:55.187Z,45.40
2023-05-02T18:46:23.119Z,45.57
2023-05-02T18:48:50.910Z,45.65
2023-05-02T18:51:18.782Z,45.61
2023-05-02T18:53:46.713Z,45.77
2023-05-02T18:56:14.772Z,45.85
2023-05-02T18:58:42.601Z,45.65
2023-05-02T19:01:17.036Z,45.90
2023-05-02T19:03:44.981Z,45.84
2023-05-02T19:06:14.796Z,46.06
2023-05-02T19:08:44.808Z,45.68
2023-05-02T19:11:13.169Z,45.79
2023-05-02T19:13:42.563Z,45.92
2023-05-02T19:16:14.538Z,45.83
2023-05-02T19:18:43.595Z,45.73
2023-05-02T19:21:14.433Z,46.20
2023-05-02T19:23:43.326Z,46.03
2023-05-02T19:26:12.480Z,45.91
2023-05-02T19:28:40.626Z,46.03
2023-05-02T19:31:10.554Z,46.35
2023-05-02T19:33:40.599Z,47.18
2023-05-02T19:36:08.371Z,47.56
2023-05-02T19:38:42.438Z,46.67
2023-05-02T19:41:10.606Z,46.51
2023-05-02T19:43:38.573Z,46.57
2023-05-02T19:46:06.635Z,46.69
2023-05-02T19:48:34.778Z,46.42
2023-05-02T19:51:04.168Z,46.73
2023-05-02T19:53:33.173Z,47.00
2023-05-02T19:56:03.230Z,46.58
2023-05-02T19:58:31.396Z,46.57
2023-05-02T20:00:59.973Z,46.48
2023-05-02T20:03:28.114Z,47.30
2023-05-02T20:05:57.702Z,47.37
2023-05-02T20:08:28.031Z,47.29
2023-05-02T20:10:56.548Z,48.67
2023-05-02T20:13:24.506Z,47.25
2023-05-02T20:15:53.683Z,48.08
2023-05-02T20:18:21.688Z,47.62
2023-05-02T20:20:49.738Z,47.08
2023-05-02T20:23:17.466Z,47.13
2023-05-02T20:25:46.467Z,46.86
2023-05-02T20:28:14.265Z,46.98
2023-05-02T20:30:43.940Z,47.07
2023-05-02T20:33:16.149Z,47.51
2023-05-02T20:35:45.651Z,47.53
2023-05-02T20:38:13.445Z,47.39
2023-05-02T20:40:42.845Z,47.64
2023-05-02T20:43:12.077Z,47.56
2023-05-02T20:45:40.268Z,47.93
2023-05-02T20:48:08.251Z,47.84
2023-05-02T20:50:36.459Z,47.74
2023-05-02T20:53:04.822Z,47.81
2023-05-02T20:55:32.661Z,47.75
2023-05-02T20:58:00.502Z,47.68
2023-05-02T21:00:29.046Z,47.96
2023-05-02T21:02:56.942Z,48.16
2023-05-02T21:05:27.026Z,48.00
2023-05-02T21:07:54.883Z,47.48
2023-05-02T21:10:22.873Z,47.48
2023-05-02T21:12:50.734Z,47.41
2023-05-02T21:15:18.788Z,47.47
2023-05-02T21:17:46.702Z,47.59
2023-05-02T21:20:14.577Z,47.46
2023-05-02T21:22:42.229Z,47.16
2023-05-02T21:25:10.389Z,47.06
2023-05-02T21:27:38.351Z,47.52
2023-05-02T21:30:06.995Z,47.06
2023-05-02T21:32:34.739Z,47.04
2023-05-02T21:35:02.712Z,47.15
2023-05-02T21:37:33.682Z,47.32
2023-05-02T21:40:01.769Z,46.81
2023-05-02T21:42:29.979Z,46.63
2023-05-02T21:44:58.403Z,46.65
2023-05-02T21:47:26.413Z,46.77
2023-05-02T21:49:55.884Z,46.73
2023-05-02T21:52:23.820Z,47.12
2023-05-02T21:54:52.804Z,46.99
2023-05-02T21:57:20.790Z,47.01
2023-05-02T21:59:48.661Z,47.00
2023-05-02T22:02:17.850Z,46.85
2023-05-02T22:04:48.284Z,46.70
2023-05-02T22:07:16.169Z,46.57
2023-05-02T22:09:43.958Z,47.12
2023-05-02T22:12:11.838Z,46.69
2023-05-02T22:14:45.302Z,46.75
2023-05-02T22:17:13.958Z,46.75
2023-05-02T22:19:42.033Z,46.67
2023-05-02T22:22:09.817Z,46.33
2023-05-02T22:24:37.644Z,45.83
2023-05-02T22:27:07.448Z,46.00
2023-05-02T22:29:35.244Z,46.20
2023-05-02T22:32:03.063Z,46.01
2023-05-02T22:34:30.870Z,45.96
2023-05-02T22:36:58.629Z,46.19
2023-05-02T22:39:26.416Z,46.14
2023-05-02T22:41:54.197Z,46.08
2023-05-02T22:44:22.104Z,46.51
2023-05-02T22:46:50.088Z,46.38
2023-05-02T22:49:19.955Z,46.36
2023-05-02T22:51:48.208Z,46.20
2023-05-02T22:54:17.009Z,45.91
2023-05-02T22:56:44.996Z,45.92
2023-05-02T22:59:12.809Z,46.20
2023-05-02T23:01:41.598Z,45.97
2023-05-02T23:04:09.947Z,45.78
2023-05-02T23:06:37.792Z,46.09
2023-05-02T23:09:07.053Z,45.97
2023-05-02T23:11:34.722Z,46.39
2023-05-02T23:14:02.588Z,46.15
2023-05-02T23:16:30.465Z,45.70
2023-05-02T23:18:58.136Z,45.66
2023-05-02T23:21:26.286Z,45.38
2023-05-02T23:23:54.169Z,45.71
2023-05-02T23:26:21.920Z,46.07
2023-05-02T23:28:49.512Z,45.72
2023-05-02T23:31:17.425Z,45.74
2023-05-02T23:33:45.913Z,45.96
2023-05-02T23:36:13.594Z,46.21
2023-05-02T23:38:41.962Z,46.05
2023-05-02T23:41:10.252Z,46.12
2023-05-02T23:43:38.262Z,45.89
2023-05-02T23:46:06.498Z,46.25
2023-05-02T23:48:34.228Z,45.89
2023-05-02T23:51:02.526Z,46.06
2023-05-02T23:53:30.242Z,46.36
2023-05-02T23:55:59.787Z,45.93
2023-05-02T23:58:27.619Z,45.56
